»·PEaware :: N2359Z KBUR-KTOA

N2359Z :: KBUR-KTOA

FLIGHT INFORMATION

Flight Status: Arrived
Operator: Privately registered:
United States
More flights under this callsign
Pilot: Steve B. (23619)
Aircraft: CESSNA 172 SKYHAWK
(C172)
More flights by this aircraft type
Origin: KBUR Bob Hope-Burbank
United States
Destination: KTOA Zamperini
United States
More flights between these airports :: More routes between these airports
Route: SMO VPLSR
File this flight plan on PilotEdge
Remarks: Mini-route Southbound
Altitude:
(Current/Filed)
3,000ft
Speed:
(Current/Filed)
110kts
Departed: 07-Jan-20 10:44 PM
Arrived: 07-Jan-20 11:05 PM
Distance/Time
Traveled:
24nm/0:20
Distance/Time
To Go:
Arrived

Flight Plot

Page will automatically refresh every two minutes.


Map Options




Map Legend


Flown Route
Filed Route
Departure Airport
Arrival Airport
Navaid (VOR, NDB)
Fix

Horizontal Profiles

Position Reports

Time Latitude Longitude Heading Altitude Ground
Speed
07-Jan-20 22:04 34.196337 -118.367565 358 723ft 0kts
07-Jan-20 22:05 34.196337 -118.367565 358 723ft 0kts
07-Jan-20 22:06 34.196337 -118.367565 358 723ft 0kts
07-Jan-20 22:07 34.196337 -118.367565 358 723ft 0kts
07-Jan-20 22:08 34.196337 -118.367565 358 723ft 0kts
07-Jan-20 22:09 34.196337 -118.367565 358 723ft 0kts
07-Jan-20 22:10 34.196337 -118.367565 358 723ft 0kts
07-Jan-20 22:11 34.196337 -118.367565 358 723ft 0kts
07-Jan-20 22:12 34.196337 -118.367565 358 723ft 0kts
07-Jan-20 22:14 34.196338 -118.367565 358 723ft 0kts
07-Jan-20 22:15 34.196371 -118.367566 358 723ft 0kts
07-Jan-20 22:16 34.196371 -118.367566 358 723ft 0kts
07-Jan-20 22:17 34.196371 -118.367566 358 723ft 0kts
07-Jan-20 22:18 34.196371 -118.367566 358 723ft 0kts
07-Jan-20 22:19 34.196371 -118.367566 358 723ft 0kts
07-Jan-20 22:20 34.196371 -118.367566 358 723ft 0kts
07-Jan-20 22:21 34.196371 -118.367566 358 723ft 0kts
07-Jan-20 22:22 34.196371 -118.367566 358 723ft 0kts
07-Jan-20 22:23 34.196371 -118.367566 358 723ft 0kts
07-Jan-20 22:24 34.196371 -118.367566 358 723ft 0kts
07-Jan-20 22:25 34.196371 -118.367566 358 723ft 0kts
07-Jan-20 22:26 34.196371 -118.367566 358 723ft 0kts
07-Jan-20 22:27 34.196371 -118.367566 358 723ft 0kts
07-Jan-20 22:28 34.196371 -118.367566 358 723ft 0kts
07-Jan-20 22:29 34.196371 -118.367566 358 723ft 0kts
07-Jan-20 22:30 34.196371 -118.367566 358 723ft 0kts
07-Jan-20 22:31 34.196371 -118.367566 358 723ft 0kts
07-Jan-20 22:32 34.196371 -118.367566 358 723ft 0kts
07-Jan-20 22:33 34.196371 -118.367566 358 723ft 0kts
07-Jan-20 22:34 34.196371 -118.367566 358 723ft 0kts
07-Jan-20 22:34 34.196498 -118.367383 94 723ft 6kts
07-Jan-20 22:36 34.196935 -118.368411 270 724ft 11kts
07-Jan-20 22:36 34.197127 -118.368957 325 725ft 0kts
07-Jan-20 22:38 34.197127 -118.368957 325 725ft 0kts
07-Jan-20 22:38 34.197127 -118.368957 325 725ft 0kts
07-Jan-20 22:39 34.197127 -118.368957 325 725ft 0kts
07-Jan-20 22:41 34.197127 -118.368957 325 725ft 0kts
07-Jan-20 22:41 34.197127 -118.368957 325 725ft 0kts
07-Jan-20 22:42 34.197957 -118.368539 91 725ft 23kts
07-Jan-20 22:43 34.197927 -118.347345 95 1278ft 71kts
07-Jan-20 22:44 34.177859 -118.347304 197 1920ft 85kts
07-Jan-20 22:45 34.153315 -118.352354 196 2558ft 89kts
07-Jan-20 22:46 34.134845 -118.370287 229 3128ft 91kts
07-Jan-20 22:47 34.117202 -118.393775 221 3088ft 97kts
07-Jan-20 22:48 34.094876 -118.412470 204 3000ft 98kts
07-Jan-20 22:49 34.069855 -118.425269 207 2781ft 98kts
07-Jan-20 22:50 34.045920 -118.440356 192 2524ft 97kts
07-Jan-20 22:51 34.019634 -118.448483 199 2271ft 97kts
07-Jan-20 22:52 33.997499 -118.446120 154 2366ft 102kts
07-Jan-20 22:53 33.978992 -118.432895 135 2413ft 81kts
07-Jan-20 22:54 33.960804 -118.411416 138 2617ft 99kts
07-Jan-20 22:55 33.938494 -118.393510 149 2486ft 97kts
07-Jan-20 22:56 33.915839 -118.374988 147 2394ft 98kts
07-Jan-20 22:57 33.895668 -118.357589 146 2537ft 99kts
07-Jan-20 22:58 33.874026 -118.345526 163 2536ft 98kts
07-Jan-20 22:59 33.848143 -118.334450 173 2463ft 96kts
07-Jan-20 23:00 33.821014 -118.331564 179 1485ft 97kts
07-Jan-20 23:01 33.802093 -118.311418 129 755ft 85kts
07-Jan-20 23:02 33.790164 -118.315979 297 497ft 70kts
07-Jan-20 23:03 33.799613 -118.332916 307 176ft 61kts
07-Jan-20 23:04 33.805525 -118.342615 288 95ft 18kts
07-Jan-20 23:05 33.805886 -118.343885 288 94ft 0kts
07-Jan-20 23:06 33.804664 -118.346091 190 96ft 8kts
07-Jan-20 23:07 33.802202 -118.342024 125 101ft 19kts
07-Jan-20 23:08 33.801244 -118.340893 35 108ft 0kts
07-Jan-20 23:09 33.801244 -118.340893 35 108ft 0kts
07-Jan-20 23:10 33.801244 -118.340893 35 108ft 0kts
07-Jan-20 23:11 33.801244 -118.340893 35 108ft 0kts
07-Jan-20 23:12 33.801244 -118.340893 35 108ft 0kts
07-Jan-20 23:13 33.801244 -118.340893 35 108ft 0kts
07-Jan-20 23:14 33.801244 -118.340893 35 108ft 0kts
07-Jan-20 23:15 33.801244 -118.340893 35 108ft 0kts
07-Jan-20 23:16 33.801244 -118.340893 35 108ft 0kts
07-Jan-20 23:17 33.801244 -118.340893 35 108ft 0kts
07-Jan-20 23:18 33.801244 -118.340893 35 108ft 0kts

Navigation Log

Ident Type
Flight plan parsing failed, navigation log unavailable